sensor_id;sensor_type;location;lat;lon;timestamp;P1;durP1;ratioP1;P2;durP2;ratioP2
17790;SDS011;9019;48.132;-1.210;2022-08-06T00:02:25;3.40;;;1.30;;
17790;SDS011;9019;48.132;-1.210;2022-08-06T00:04:53;3.70;;;1.07;;
17790;SDS011;9019;48.132;-1.210;2022-08-06T00:07:21;4.87;;;1.20;;
17790;SDS011;9019;48.132;-1.210;2022-08-06T00:09:48;4.70;;;1.20;;
17790;SDS011;9019;48.132;-1.210;2022-08-06T00:12:16;3.37;;;1.40;;
17790;SDS011;9019;48.132;-1.210;2022-08-06T00:14:43;2.83;;;1.43;;
17790;SDS011;9019;48.132;-1.210;2022-08-06T00:17:10;4.03;;;1.30;;
17790;SDS011;9019;48.132;-1.210;2022-08-06T00:19:37;3.73;;;1.17;;
17790;SDS011;9019;48.132;-1.210;2022-08-06T00:22:04;3.63;;;1.30;;
17790;SDS011;9019;48.132;-1.210;2022-08-06T00:24:31;4.77;;;1.30;;
17790;SDS011;9019;48.132;-1.210;2022-08-06T00:26:58;2.97;;;1.17;;
17790;SDS011;9019;48.132;-1.210;2022-08-06T00:29:26;3.87;;;1.23;;
17790;SDS011;9019;48.132;-1.210;2022-08-06T00:31:53;3.40;;;1.33;;
17790;SDS011;9019;48.132;-1.210;2022-08-06T00:34:20;3.80;;;1.23;;
17790;SDS011;9019;48.132;-1.210;2022-08-06T00:36:47;3.77;;;1.10;;
17790;SDS011;9019;48.132;-1.210;2022-08-06T00:39:14;2.73;;;1.20;;
17790;SDS011;9019;48.132;-1.210;2022-08-06T00:41:41;4.43;;;1.40;;
17790;SDS011;9019;48.132;-1.210;2022-08-06T00:44:08;3.97;;;1.27;;
17790;SDS011;9019;48.132;-1.210;2022-08-06T00:46:37;2.70;;;1.10;;
17790;SDS011;9019;48.132;-1.210;2022-08-06T00:49:04;5.47;;;1.57;;
17790;SDS011;9019;48.132;-1.210;2022-08-06T00:51:32;3.93;;;1.30;;
17790;SDS011;9019;48.132;-1.210;2022-08-06T00:54:00;4.43;;;1.43;;
17790;SDS011;9019;48.132;-1.210;2022-08-06T00:56:27;4.20;;;1.17;;
17790;SDS011;9019;48.132;-1.210;2022-08-06T00:58:54;4.30;;;1.20;;
17790;SDS011;9019;48.132;-1.210;2022-08-06T01:01:21;3.70;;;1.50;;
17790;SDS011;9019;48.132;-1.210;2022-08-06T01:03:49;4.20;;;1.40;;
17790;SDS011;9019;48.132;-1.210;2022-08-06T01:06:16;4.27;;;1.47;;
17790;SDS011;9019;48.132;-1.210;2022-08-06T01:08:43;4.80;;;1.70;;
17790;SDS011;9019;48.132;-1.210;2022-08-06T01:11:09;3.53;;;1.40;;
17790;SDS011;9019;48.132;-1.210;2022-08-06T01:13:36;5.50;;;1.43;;
17790;SDS011;9019;48.132;-1.210;2022-08-06T01:16:07;3.67;;;1.30;;
17790;SDS011;9019;48.132;-1.210;2022-08-06T01:18:43;3.17;;;1.30;;
17790;SDS011;9019;48.132;-1.210;2022-08-06T01:21:21;4.47;;;1.40;;
17790;SDS011;9019;48.132;-1.210;2022-08-06T01:24:11;3.10;;;1.50;;
17790;SDS011;9019;48.132;-1.210;2022-08-06T01:27:21;6.17;;;1.40;;
17790;SDS011;9019;48.132;-1.210;2022-08-06T01:30:03;4.80;;;1.70;;
17790;SDS011;9019;48.132;-1.210;2022-08-06T01:32:32;3.47;;;1.20;;
17790;SDS011;9019;48.132;-1.210;2022-08-06T01:35:04;4.50;;;1.30;;
17790;SDS011;9019;48.132;-1.210;2022-08-06T01:37:36;2.77;;;1.30;;
17790;SDS011;9019;48.132;-1.210;2022-08-06T01:40:09;4.50;;;1.80;;
17790;SDS011;9019;48.132;-1.210;2022-08-06T01:42:42;2.47;;;1.40;;
17790;SDS011;9019;48.132;-1.210;2022-08-06T01:45:11;3.23;;;1.50;;
17790;SDS011;9019;48.132;-1.210;2022-08-06T01:47:41;5.17;;;1.60;;
17790;SDS011;9019;48.132;-1.210;2022-08-06T01:50:11;5.30;;;1.63;;
17790;SDS011;9019;48.132;-1.210;2022-08-06T01:52:40;3.90;;;1.60;;
17790;SDS011;9019;48.132;-1.210;2022-08-06T01:55:10;4.67;;;1.50;;
17790;SDS011;9019;48.132;-1.210;2022-08-06T01:57:43;4.07;;;1.40;;
17790;SDS011;9019;48.132;-1.210;2022-08-06T02:00:13;3.83;;;1.80;;
17790;SDS011;9019;48.132;-1.210;2022-08-06T02:02:41;4.50;;;2.10;;
17790;SDS011;9019;48.132;-1.210;2022-08-06T02:05:10;4.93;;;1.57;;
17790;SDS011;9019;48.132;-1.210;2022-08-06T02:07:39;4.67;;;1.50;;
17790;SDS011;9019;48.132;-1.210;2022-08-06T02:10:08;2.67;;;1.47;;
17790;SDS011;9019;48.132;-1.210;2022-08-06T02:12:37;4.67;;;1.67;;
17790;SDS011;9019;48.132;-1.210;2022-08-06T02:15:09;4.53;;;1.97;;
17790;SDS011;9019;48.132;-1.210;2022-08-06T02:17:41;3.37;;;1.50;;
17790;SDS011;9019;48.132;-1.210;2022-08-06T02:20:12;5.33;;;1.90;;
17790;SDS011;9019;48.132;-1.210;2022-08-06T02:22:43;3.17;;;1.53;;
17790;SDS011;9019;48.132;-1.210;2022-08-06T02:25:12;2.93;;;1.50;;
17790;SDS011;9019;48.132;-1.210;2022-08-06T02:27:44;4.83;;;1.50;;
17790;SDS011;9019;48.132;-1.210;2022-08-06T02:30:15;4.20;;;1.90;;
17790;SDS011;9019;48.132;-1.210;2022-08-06T02:32:43;6.37;;;1.80;;
17790;SDS011;9019;48.132;-1.210;2022-08-06T02:35:11;4.47;;;1.50;;
17790;SDS011;9019;48.132;-1.210;2022-08-06T02:37:41;3.07;;;1.57;;
17790;SDS011;9019;48.132;-1.210;2022-08-06T02:40:16;5.57;;;1.70;;
17790;SDS011;9019;48.132;-1.210;2022-08-06T02:42:50;3.63;;;1.70;;
17790;SDS011;9019;48.132;-1.210;2022-08-06T02:45:26;6.10;;;1.90;;
17790;SDS011;9019;48.132;-1.210;2022-08-06T02:48:01;4.30;;;1.80;;
17790;SDS011;9019;48.132;-1.210;2022-08-06T02:50:34;4.50;;;1.60;;
17790;SDS011;9019;48.132;-1.210;2022-08-06T02:53:04;3.13;;;1.70;;
17790;SDS011;9019;48.132;-1.210;2022-08-06T02:55:33;2.97;;;1.73;;
17790;SDS011;9019;48.132;-1.210;2022-08-06T02:58:05;3.10;;;1.50;;
17790;SDS011;9019;48.132;-1.210;2022-08-06T03:00:38;5.80;;;1.60;;
17790;SDS011;9019;48.132;-1.210;2022-08-06T03:03:08;5.83;;;2.13;;
17790;SDS011;9019;48.132;-1.210;2022-08-06T03:05:36;6.10;;;2.00;;
17790;SDS011;9019;48.132;-1.210;2022-08-06T03:08:04;4.43;;;1.87;;
17790;SDS011;9019;48.132;-1.210;2022-08-06T03:10:33;5.80;;;1.87;;
17790;SDS011;9019;48.132;-1.210;2022-08-06T03:13:02;5.67;;;1.73;;
17790;SDS011;9019;48.132;-1.210;2022-08-06T03:15:32;3.40;;;1.63;;
17790;SDS011;9019;48.132;-1.210;2022-08-06T03:18:01;7.43;;;1.80;;
17790;SDS011;9019;48.132;-1.210;2022-08-06T03:20:30;3.67;;;1.70;;
17790;SDS011;9019;48.132;-1.210;2022-08-06T03:23:00;3.83;;;1.70;;
17790;SDS011;9019;48.132;-1.210;2022-08-06T03:25:31;4.47;;;1.70;;
17790;SDS011;9019;48.132;-1.210;2022-08-06T03:27:59;4.07;;;1.77;;
17790;SDS011;9019;48.132;-1.210;2022-08-06T03:30:26;5.83;;;1.77;;
17790;SDS011;9019;48.132;-1.210;2022-08-06T03:32:53;4.60;;;2.00;;
17790;SDS011;9019;48.132;-1.210;2022-08-06T03:35:23;5.33;;;2.03;;
17790;SDS011;9019;48.132;-1.210;2022-08-06T03:37:51;7.60;;;2.53;;
17790;SDS011;9019;48.132;-1.210;2022-08-06T03:40:20;5.33;;;2.00;;
17790;SDS011;9019;48.132;-1.210;2022-08-06T03:42:48;7.67;;;2.03;;
17790;SDS011;9019;48.132;-1.210;2022-08-06T03:45:15;3.27;;;1.70;;
17790;SDS011;9019;48.132;-1.210;2022-08-06T03:47:43;4.67;;;1.90;;
17790;SDS011;9019;48.132;-1.210;2022-08-06T03:50:18;9.10;;;2.43;;
17790;SDS011;9019;48.132;-1.210;2022-08-06T03:52:51;5.67;;;2.13;;
17790;SDS011;9019;48.132;-1.210;2022-08-06T03:55:22;4.23;;;1.80;;
17790;SDS011;9019;48.132;-1.210;2022-08-06T03:57:51;3.03;;;2.00;;
17790;SDS011;9019;48.132;-1.210;2022-08-06T04:00:22;2.77;;;1.90;;
17790;SDS011;9019;48.132;-1.210;2022-08-06T04:02:51;3.53;;;2.00;;
17790;SDS011;9019;48.132;-1.210;2022-08-06T04:05:20;3.23;;;1.70;;
17790;SDS011;9019;48.132;-1.210;2022-08-06T04:07:51;4.23;;;1.97;;
17790;SDS011;9019;48.132;-1.210;2022-08-06T04:10:20;6.63;;;2.17;;
17790;SDS011;9019;48.132;-1.210;2022-08-06T04:12:49;5.60;;;2.17;;
17790;SDS011;9019;48.132;-1.210;2022-08-06T04:15:16;3.53;;;1.93;;
17790;SDS011;9019;48.132;-1.210;2022-08-06T04:17:44;6.73;;;2.10;;
17790;SDS011;9019;48.132;-1.210;2022-08-06T04:20:13;5.67;;;2.37;;
17790;SDS011;9019;48.132;-1.210;2022-08-06T04:22:44;5.33;;;2.27;;
17790;SDS011;9019;48.132;-1.210;2022-08-06T04:25:12;3.83;;;2.30;;
17790;SDS011;9019;48.132;-1.210;2022-08-06T04:27:40;4.00;;;2.00;;
17790;SDS011;9019;48.132;-1.210;2022-08-06T04:30:09;3.77;;;2.10;;
17790;SDS011;9019;48.132;-1.210;2022-08-06T04:32:37;6.80;;;2.77;;
17790;SDS011;9019;48.132;-1.210;2022-08-06T04:35:06;5.00;;;2.00;;
17790;SDS011;9019;48.132;-1.210;2022-08-06T04:37:34;6.43;;;2.00;;
17790;SDS011;9019;48.132;-1.210;2022-08-06T04:40:02;3.87;;;2.00;;
17790;SDS011;9019;48.132;-1.210;2022-08-06T04:42:33;4.23;;;2.13;;
17790;SDS011;9019;48.132;-1.210;2022-08-06T04:45:00;3.20;;;2.30;;
17790;SDS011;9019;48.132;-1.210;2022-08-06T04:47:28;3.87;;;2.40;;
17790;SDS011;9019;48.132;-1.210;2022-08-06T04:49:57;3.93;;;2.23;;
17790;SDS011;9019;48.132;-1.210;2022-08-06T04:52:25;3.67;;;1.80;;
17790;SDS011;9019;48.132;-1.210;2022-08-06T04:54:53;4.33;;;2.30;;
17790;SDS011;9019;48.132;-1.210;2022-08-06T04:57:20;7.27;;;2.20;;
17790;SDS011;9019;48.132;-1.210;2022-08-06T04:59:49;8.37;;;2.50;;
17790;SDS011;9019;48.132;-1.210;2022-08-06T05:02:15;4.47;;;2.20;;
17790;SDS011;9019;48.132;-1.210;2022-08-06T05:04:42;5.37;;;2.50;;
17790;SDS011;9019;48.132;-1.210;2022-08-06T05:07:12;4.63;;;2.40;;
17790;SDS011;9019;48.132;-1.210;2022-08-06T05:09:42;5.20;;;2.43;;
17790;SDS011;9019;48.132;-1.210;2022-08-06T05:12:14;3.20;;;2.20;;
17790;SDS011;9019;48.132;-1.210;2022-08-06T05:14:46;5.90;;;2.40;;
17790;SDS011;9019;48.132;-1.210;2022-08-06T05:17:19;6.47;;;2.43;;
17790;SDS011;9019;48.132;-1.210;2022-08-06T05:19:51;6.77;;;2.20;;
17790;SDS011;9019;48.132;-1.210;2022-08-06T05:22:22;6.80;;;3.20;;
17790;SDS011;9019;48.132;-1.210;2022-08-06T05:24:50;5.20;;;2.63;;
17790;SDS011;9019;48.132;-1.210;2022-08-06T05:27:17;4.63;;;2.50;;
17790;SDS011;9019;48.132;-1.210;2022-08-06T05:29:45;7.50;;;2.10;;
17790;SDS011;9019;48.132;-1.210;2022-08-06T05:32:13;6.70;;;2.47;;
17790;SDS011;9019;48.132;-1.210;2022-08-06T05:34:41;6.53;;;2.57;;
17790;SDS011;9019;48.132;-1.210;2022-08-06T05:37:11;8.43;;;2.10;;
17790;SDS011;9019;48.132;-1.210;2022-08-06T05:39:38;2.53;;;1.93;;
17790;SDS011;9019;48.132;-1.210;2022-08-06T05:42:05;4.73;;;2.00;;
17790;SDS011;9019;48.132;-1.210;2022-08-06T05:44:32;3.00;;;1.70;;
17790;SDS011;9019;48.132;-1.210;2022-08-06T05:47:01;5.07;;;1.80;;
17790;SDS011;9019;48.132;-1.210;2022-08-06T05:49:33;2.97;;;1.67;;
17790;SDS011;9019;48.132;-1.210;2022-08-06T05:52:07;5.17;;;1.80;;
17790;SDS011;9019;48.132;-1.210;2022-08-06T05:54:47;5.73;;;1.70;;
17790;SDS011;9019;48.132;-1.210;2022-08-06T05:57:19;5.73;;;1.60;;
17790;SDS011;9019;48.132;-1.210;2022-08-06T05:59:50;3.60;;;1.60;;
17790;SDS011;9019;48.132;-1.210;2022-08-06T06:02:22;5.33;;;1.70;;
17790;SDS011;9019;48.132;-1.210;2022-08-06T06:04:52;3.80;;;1.70;;
17790;SDS011;9019;48.132;-1.210;2022-08-06T06:07:20;4.07;;;1.60;;
17790;SDS011;9019;48.132;-1.210;2022-08-06T06:09:47;4.10;;;1.50;;
17790;SDS011;9019;48.132;-1.210;2022-08-06T06:12:15;3.27;;;1.33;;
17790;SDS011;9019;48.132;-1.210;2022-08-06T06:14:43;3.77;;;1.10;;
17790;SDS011;9019;48.132;-1.210;2022-08-06T06:17:19;2.83;;;1.13;;
17790;SDS011;9019;48.132;-1.210;2022-08-06T06:20:00;4.57;;;1.20;;
17790;SDS011;9019;48.132;-1.210;2022-08-06T06:22:35;2.47;;;0.98;;
17790;SDS011;9019;48.132;-1.210;2022-08-06T06:25:10;3.63;;;1.30;;
17790;SDS011;9019;48.132;-1.210;2022-08-06T06:27:43;2.55;;;1.30;;
17790;SDS011;9019;48.132;-1.210;2022-08-06T06:30:15;3.58;;;1.40;;
17790;SDS011;9019;48.132;-1.210;2022-08-06T06:32:48;4.20;;;1.35;;
17790;SDS011;9019;48.132;-1.210;2022-08-06T06:35:19;3.92;;;1.20;;
17790;SDS011;9019;48.132;-1.210;2022-08-06T06:37:50;4.68;;;1.20;;
17790;SDS011;9019;48.132;-1.210;2022-08-06T06:40:21;2.05;;;1.00;;
17790;SDS011;9019;48.132;-1.210;2022-08-06T06:42:53;3.78;;;0.90;;
17790;SDS011;9019;48.132;-1.210;2022-08-06T06:45:25;2.65;;;1.20;;
17790;SDS011;9019;48.132;-1.210;2022-08-06T06:47:56;4.95;;;1.40;;
17790;SDS011;9019;48.132;-1.210;2022-08-06T06:50:27;3.13;;;1.10;;
17790;SDS011;9019;48.132;-1.210;2022-08-06T06:52:55;3.38;;;1.10;;
17790;SDS011;9019;48.132;-1.210;2022-08-06T06:55:24;3.65;;;1.10;;
17790;SDS011;9019;48.132;-1.210;2022-08-06T06:57:54;2.75;;;0.90;;
17790;SDS011;9019;48.132;-1.210;2022-08-06T07:00:23;3.13;;;1.08;;
17790;SDS011;9019;48.132;-1.210;2022-08-06T07:02:50;4.95;;;1.35;;
17790;SDS011;9019;48.132;-1.210;2022-08-06T07:05:18;2.85;;;1.10;;
17790;SDS011;9019;48.132;-1.210;2022-08-06T07:07:48;2.90;;;1.08;;
17790;SDS011;9019;48.132;-1.210;2022-08-06T07:10:16;3.72;;;0.93;;
17790;SDS011;9019;48.132;-1.210;2022-08-06T07:12:45;4.93;;;0.95;;
17790;SDS011;9019;48.132;-1.210;2022-08-06T07:15:14;2.17;;;1.10;;
17790;SDS011;9019;48.132;-1.210;2022-08-06T07:17:43;3.72;;;0.90;;
17790;SDS011;9019;48.132;-1.210;2022-08-06T07:20:11;2.95;;;0.95;;
17790;SDS011;9019;48.132;-1.210;2022-08-06T07:22:40;3.30;;;1.13;;
17790;SDS011;9019;48.132;-1.210;2022-08-06T07:25:12;1.73;;;0.90;;
17790;SDS011;9019;48.132;-1.210;2022-08-06T07:27:41;2.33;;;0.80;;
17790;SDS011;9019;48.132;-1.210;2022-08-06T07:30:09;2.22;;;0.75;;
17790;SDS011;9019;48.132;-1.210;2022-08-06T07:32:37;2.38;;;0.80;;
17790;SDS011;9019;48.132;-1.210;2022-08-06T07:35:05;1.40;;;0.70;;
17790;SDS011;9019;48.132;-1.210;2022-08-06T07:37:33;3.28;;;0.75;;
17790;SDS011;9019;48.132;-1.210;2022-08-06T07:40:02;1.92;;;0.85;;
17790;SDS011;9019;48.132;-1.210;2022-08-06T07:42:32;2.03;;;0.70;;
17790;SDS011;9019;48.132;-1.210;2022-08-06T07:45:02;2.47;;;0.90;;
17790;SDS011;9019;48.132;-1.210;2022-08-06T07:47:41;2.22;;;0.82;;
17790;SDS011;9019;48.132;-1.210;2022-08-06T07:50:12;1.73;;;0.75;;
17790;SDS011;9019;48.132;-1.210;2022-08-06T07:52:39;3.75;;;0.75;;
17790;SDS011;9019;48.132;-1.210;2022-08-06T07:55:07;4.85;;;0.90;;
17790;SDS011;9019;48.132;-1.210;2022-08-06T07:57:38;1.83;;;0.70;;
17790;SDS011;9019;48.132;-1.210;2022-08-06T08:00:06;2.00;;;0.73;;
17790;SDS011;9019;48.132;-1.210;2022-08-06T08:02:33;1.90;;;0.70;;
17790;SDS011;9019;48.132;-1.210;2022-08-06T08:05:01;2.67;;;0.77;;
17790;SDS011;9019;48.132;-1.210;2022-08-06T08:07:46;2.15;;;0.80;;
17790;SDS011;9019;48.132;-1.210;2022-08-06T08:10:13;1.77;;;0.80;;
17790;SDS011;9019;48.132;-1.210;2022-08-06T08:12:42;1.25;;;0.70;;
17790;SDS011;9019;48.132;-1.210;2022-08-06T08:15:10;1.67;;;0.70;;
17790;SDS011;9019;48.132;-1.210;2022-08-06T08:17:38;2.08;;;0.70;;
17790;SDS011;9019;48.132;-1.210;2022-08-06T08:20:05;1.65;;;0.70;;
17790;SDS011;9019;48.132;-1.210;2022-08-06T08:22:33;1.23;;;0.60;;
17790;SDS011;9019;48.132;-1.210;2022-08-06T08:25:01;1.67;;;0.70;;
17790;SDS011;9019;48.132;-1.210;2022-08-06T08:27:29;2.10;;;0.52;;
17790;SDS011;9019;48.132;-1.210;2022-08-06T08:29:57;2.47;;;0.57;;
17790;SDS011;9019;48.132;-1.210;2022-08-06T08:32:24;2.10;;;0.70;;
17790;SDS011;9019;48.132;-1.210;2022-08-06T08:34:51;3.35;;;0.65;;
17790;SDS011;9019;48.132;-1.210;2022-08-06T08:37:19;1.83;;;0.50;;
17790;SDS011;9019;48.132;-1.210;2022-08-06T08:39:46;4.55;;;0.65;;
17790;SDS011;9019;48.132;-1.210;2022-08-06T08:42:14;1.73;;;0.50;;
17790;SDS011;9019;48.132;-1.210;2022-08-06T08:44:44;2.95;;;0.60;;
17790;SDS011;9019;48.132;-1.210;2022-08-06T08:47:14;2.55;;;0.50;;
17790;SDS011;9019;48.132;-1.210;2022-08-06T08:49:44;1.90;;;0.70;;
17790;SDS011;9019;48.132;-1.210;2022-08-06T08:52:13;4.28;;;0.80;;
17790;SDS011;9019;48.132;-1.210;2022-08-06T08:54:41;2.95;;;0.82;;
17790;SDS011;9019;48.132;-1.210;2022-08-06T08:57:08;2.03;;;0.80;;
17790;SDS011;9019;48.132;-1.210;2022-08-06T08:59:36;1.75;;;0.60;;
17790;SDS011;9019;48.132;-1.210;2022-08-06T09:02:04;1.00;;;0.60;;
17790;SDS011;9019;48.132;-1.210;2022-08-06T09:04:32;1.25;;;0.60;;
17790;SDS011;9019;48.132;-1.210;2022-08-06T09:07:01;1.58;;;0.50;;
17790;SDS011;9019;48.132;-1.210;2022-08-06T09:09:28;1.92;;;0.70;;
17790;SDS011;9019;48.132;-1.210;2022-08-06T09:11:57;2.40;;;0.70;;
17790;SDS011;9019;48.132;-1.210;2022-08-06T09:14:24;3.25;;;0.85;;
17790;SDS011;9019;48.132;-1.210;2022-08-06T09:16:51;1.90;;;0.80;;
17790;SDS011;9019;48.132;-1.210;2022-08-06T09:19:19;1.58;;;0.60;;
17790;SDS011;9019;48.132;-1.210;2022-08-06T09:21:47;1.52;;;0.80;;
17790;SDS011;9019;48.132;-1.210;2022-08-06T09:24:15;1.65;;;0.65;;
17790;SDS011;9019;48.132;-1.210;2022-08-06T09:27:00;4.32;;;0.98;;
17790;SDS011;9019;48.132;-1.210;2022-08-06T09:29:28;1.52;;;0.80;;
17790;SDS011;9019;48.132;-1.210;2022-08-06T09:31:55;1.85;;;0.77;;
17790;SDS011;9019;48.132;-1.210;2022-08-06T09:34:30;2.50;;;0.70;;
17790;SDS011;9019;48.132;-1.210;2022-08-06T09:36:59;2.53;;;0.70;;
17790;SDS011;9019;48.132;-1.210;2022-08-06T09:39:29;2.20;;;0.98;;
17790;SDS011;9019;48.132;-1.210;2022-08-06T09:41:56;1.60;;;0.68;;
17790;SDS011;9019;48.132;-1.210;2022-08-06T09:44:24;2.08;;;0.77;;
17790;SDS011;9019;48.132;-1.210;2022-08-06T09:46:51;2.30;;;0.90;;
17790;SDS011;9019;48.132;-1.210;2022-08-06T09:49:18;2.45;;;0.85;;
17790;SDS011;9019;48.132;-1.210;2022-08-06T09:51:46;2.00;;;0.80;;
17790;SDS011;9019;48.132;-1.210;2022-08-06T09:54:14;1.63;;;0.90;;
17790;SDS011;9019;48.132;-1.210;2022-08-06T09:56:41;1.55;;;1.00;;
17790;SDS011;9019;48.132;-1.210;2022-08-06T09:59:09;2.63;;;0.90;;
17790;SDS011;9019;48.132;-1.210;2022-08-06T10:01:37;3.60;;;0.82;;
17790;SDS011;9019;48.132;-1.210;2022-08-06T10:04:05;2.15;;;1.00;;
17790;SDS011;9019;48.132;-1.210;2022-08-06T10:06:32;1.85;;;0.95;;
17790;SDS011;9019;48.132;-1.210;2022-08-06T10:09:06;2.45;;;0.90;;
17790;SDS011;9019;48.132;-1.210;2022-08-06T10:11:36;1.60;;;0.80;;
17790;SDS011;9019;48.132;-1.210;2022-08-06T10:14:03;2.97;;;1.00;;
17790;SDS011;9019;48.132;-1.210;2022-08-06T10:16:30;2.80;;;0.88;;
17790;SDS011;9019;48.132;-1.210;2022-08-06T10:18:58;4.38;;;1.00;;
17790;SDS011;9019;48.132;-1.210;2022-08-06T10:21:31;1.77;;;1.00;;
17790;SDS011;9019;48.132;-1.210;2022-08-06T10:24:00;1.38;;;0.82;;
17790;SDS011;9019;48.132;-1.210;2022-08-06T10:26:29;1.48;;;0.88;;
17790;SDS011;9019;48.132;-1.210;2022-08-06T10:29:01;3.08;;;1.00;;
17790;SDS011;9019;48.132;-1.210;2022-08-06T10:31:30;0.98;;;0.85;;
17790;SDS011;9019;48.132;-1.210;2022-08-06T10:33:57;3.35;;;0.90;;
17790;SDS011;9019;48.132;-1.210;2022-08-06T10:36:27;2.33;;;1.20;;
17790;SDS011;9019;48.132;-1.210;2022-08-06T10:38:55;1.65;;;0.68;;
17790;SDS011;9019;48.132;-1.210;2022-08-06T10:41:22;2.95;;;0.82;;
17790;SDS011;9019;48.132;-1.210;2022-08-06T10:43:49;1.75;;;0.60;;
17790;SDS011;9019;48.132;-1.210;2022-08-06T10:46:18;1.42;;;0.57;;
17790;SDS011;9019;48.132;-1.210;2022-08-06T10:48:46;1.80;;;0.60;;
17790;SDS011;9019;48.132;-1.210;2022-08-06T10:51:13;1.15;;;0.60;;
17790;SDS011;9019;48.132;-1.210;2022-08-06T10:53:41;5.18;;;0.70;;
17790;SDS011;9019;48.132;-1.210;2022-08-06T10:56:09;1.33;;;0.68;;
17790;SDS011;9019;48.132;-1.210;2022-08-06T10:58:37;1.25;;;0.73;;
17790;SDS011;9019;48.132;-1.210;2022-08-06T11:01:07;1.10;;;0.40;;
17790;SDS011;9019;48.132;-1.210;2022-08-06T11:03:41;1.70;;;0.50;;
17790;SDS011;9019;48.132;-1.210;2022-08-06T11:06:15;1.75;;;0.60;;
17790;SDS011;9019;48.132;-1.210;2022-08-06T11:08:50;2.25;;;0.50;;
17790;SDS011;9019;48.132;-1.210;2022-08-06T11:11:25;0.90;;;0.70;;
17790;SDS011;9019;48.132;-1.210;2022-08-06T11:13:58;1.83;;;0.40;;
17790;SDS011;9019;48.132;-1.210;2022-08-06T11:16:27;0.68;;;0.50;;
17790;SDS011;9019;48.132;-1.210;2022-08-06T11:19:00;1.52;;;0.65;;
17790;SDS011;9019;48.132;-1.210;2022-08-06T11:21:38;1.77;;;0.60;;
17790;SDS011;9019;48.132;-1.210;2022-08-06T11:24:06;3.83;;;0.75;;
17790;SDS011;9019;48.132;-1.210;2022-08-06T11:26:34;1.48;;;0.50;;
17790;SDS011;9019;48.132;-1.210;2022-08-06T11:29:03;1.40;;;0.50;;
17790;SDS011;9019;48.132;-1.210;2022-08-06T11:31:32;1.42;;;0.47;;
17790;SDS011;9019;48.132;-1.210;2022-08-06T11:34:01;0.80;;;0.45;;
17790;SDS011;9019;48.132;-1.210;2022-08-06T11:36:29;1.55;;;0.40;;
17790;SDS011;9019;48.132;-1.210;2022-08-06T11:39:08;1.50;;;0.47;;
17790;SDS011;9019;48.132;-1.210;2022-08-06T11:41:43;0.70;;;0.40;;
17790;SDS011;9019;48.132;-1.210;2022-08-06T11:44:10;1.17;;;0.60;;
17790;SDS011;9019;48.132;-1.210;2022-08-06T11:46:41;0.85;;;0.50;;
17790;SDS011;9019;48.132;-1.210;2022-08-06T11:49:12;3.22;;;0.60;;
17790;SDS011;9019;48.132;-1.210;2022-08-06T11:51:40;1.40;;;0.40;;
17790;SDS011;9019;48.132;-1.210;2022-08-06T11:54:09;0.60;;;0.50;;
17790;SDS011;9019;48.132;-1.210;2022-08-06T11:56:39;4.13;;;0.60;;
17790;SDS011;9019;48.132;-1.210;2022-08-06T11:59:28;1.15;;;0.40;;
17790;SDS011;9019;48.132;-1.210;2022-08-06T12:01:55;3.20;;;0.70;;
17790;SDS011;9019;48.132;-1.210;2022-08-06T12:04:38;1.77;;;0.50;;
17790;SDS011;9019;48.132;-1.210;2022-08-06T12:07:14;2.80;;;0.65;;
17790;SDS011;9019;48.132;-1.210;2022-08-06T12:09:41;1.42;;;0.60;;
17790;SDS011;9019;48.132;-1.210;2022-08-06T12:14:57;2.70;;;0.68;;
17790;SDS011;9019;48.132;-1.210;2022-08-06T12:17:25;1.73;;;0.50;;
17790;SDS011;9019;48.132;-1.210;2022-08-06T12:19:54;0.77;;;0.50;;
17790;SDS011;9019;48.132;-1.210;2022-08-06T12:22:23;1.10;;;0.55;;
17790;SDS011;9019;48.132;-1.210;2022-08-06T12:24:50;1.17;;;0.57;;
17790;SDS011;9019;48.132;-1.210;2022-08-06T12:27:19;3.53;;;0.70;;
17790;SDS011;9019;48.132;-1.210;2022-08-06T12:29:47;1.75;;;0.40;;
17790;SDS011;9019;48.132;-1.210;2022-08-06T12:32:22;2.53;;;0.55;;
17790;SDS011;9019;48.132;-1.210;2022-08-06T12:34:50;1.85;;;0.57;;
17790;SDS011;9019;48.132;-1.210;2022-08-06T12:37:18;1.48;;;0.60;;
17790;SDS011;9019;48.132;-1.210;2022-08-06T12:39:45;1.63;;;0.60;;
17790;SDS011;9019;48.132;-1.210;2022-08-06T12:42:31;1.92;;;0.50;;
17790;SDS011;9019;48.132;-1.210;2022-08-06T12:44:58;2.05;;;0.52;;
17790;SDS011;9019;48.132;-1.210;2022-08-06T12:47:27;1.50;;;0.52;;
17790;SDS011;9019;48.132;-1.210;2022-08-06T12:49:54;1.15;;;0.50;;
17790;SDS011;9019;48.132;-1.210;2022-08-06T12:52:21;0.85;;;0.50;;
17790;SDS011;9019;48.132;-1.210;2022-08-06T12:54:49;4.00;;;0.70;;
17790;SDS011;9019;48.132;-1.210;2022-08-06T12:57:19;1.95;;;0.75;;
17790;SDS011;9019;48.132;-1.210;2022-08-06T12:59:47;2.80;;;0.65;;
17790;SDS011;9019;48.132;-1.210;2022-08-06T13:02:16;1.48;;;0.60;;
17790;SDS011;9019;48.132;-1.210;2022-08-06T13:04:47;1.20;;;0.60;;
17790;SDS011;9019;48.132;-1.210;2022-08-06T13:07:16;1.50;;;0.63;;
17790;SDS011;9019;48.132;-1.210;2022-08-06T13:09:45;1.38;;;0.70;;
17790;SDS011;9019;48.132;-1.210;2022-08-06T13:12:13;2.03;;;0.60;;
17790;SDS011;9019;48.132;-1.210;2022-08-06T13:14:50;2.08;;;0.75;;
17790;SDS011;9019;48.132;-1.210;2022-08-06T13:17:18;1.60;;;0.70;;
17790;SDS011;9019;48.132;-1.210;2022-08-06T13:19:51;1.23;;;0.60;;
17790;SDS011;9019;48.132;-1.210;2022-08-06T13:22:19;2.80;;;0.68;;
17790;SDS011;9019;48.132;-1.210;2022-08-06T13:24:47;1.73;;;0.63;;
17790;SDS011;9019;48.132;-1.210;2022-08-06T13:27:14;2.47;;;0.57;;
17790;SDS011;9019;48.132;-1.210;2022-08-06T13:30:00;2.75;;;0.60;;
17790;SDS011;9019;48.132;-1.210;2022-08-06T13:32:27;1.55;;;0.60;;
17790;SDS011;9019;48.132;-1.210;2022-08-06T13:34:56;3.25;;;0.60;;
17790;SDS011;9019;48.132;-1.210;2022-08-06T13:37:46;2.08;;;0.60;;
17790;SDS011;9019;48.132;-1.210;2022-08-06T13:40:14;2.67;;;0.73;;
17790;SDS011;9019;48.132;-1.210;2022-08-06T13:42:48;0.55;;;0.50;;
17790;SDS011;9019;48.132;-1.210;2022-08-06T13:45:18;1.25;;;0.50;;
17790;SDS011;9019;48.132;-1.210;2022-08-06T13:47:46;2.03;;;0.50;;
17790;SDS011;9019;48.132;-1.210;2022-08-06T13:50:17;1.05;;;0.57;;
17790;SDS011;9019;48.132;-1.210;2022-08-06T13:52:44;5.03;;;0.80;;
17790;SDS011;9019;48.132;-1.210;2022-08-06T13:55:11;1.05;;;0.50;;
17790;SDS011;9019;48.132;-1.210;2022-08-06T13:57:39;2.75;;;0.80;;
17790;SDS011;9019;48.132;-1.210;2022-08-06T14:00:06;1.85;;;0.60;;
17790;SDS011;9019;48.132;-1.210;2022-08-06T14:02:33;1.08;;;0.50;;
17790;SDS011;9019;48.132;-1.210;2022-08-06T14:05:01;0.65;;;0.50;;
17790;SDS011;9019;48.132;-1.210;2022-08-06T14:07:30;2.78;;;0.60;;
17790;SDS011;9019;48.132;-1.210;2022-08-06T14:09:57;4.00;;;0.70;;
17790;SDS011;9019;48.132;-1.210;2022-08-06T14:12:24;2.08;;;0.60;;
17790;SDS011;9019;48.132;-1.210;2022-08-06T14:14:52;0.90;;;0.60;;
17790;SDS011;9019;48.132;-1.210;2022-08-06T14:17:19;1.52;;;0.60;;
17790;SDS011;9019;48.132;-1.210;2022-08-06T14:19:46;1.30;;;0.50;;
17790;SDS011;9019;48.132;-1.210;2022-08-06T14:22:14;1.80;;;0.60;;
17790;SDS011;9019;48.132;-1.210;2022-08-06T14:24:43;1.20;;;0.60;;
17790;SDS011;9019;48.132;-1.210;2022-08-06T14:27:10;1.63;;;0.60;;
17790;SDS011;9019;48.132;-1.210;2022-08-06T14:29:37;1.08;;;0.70;;
17790;SDS011;9019;48.132;-1.210;2022-08-06T14:32:05;2.53;;;0.70;;
17790;SDS011;9019;48.132;-1.210;2022-08-06T14:34:33;1.10;;;0.77;;
17790;SDS011;9019;48.132;-1.210;2022-08-06T14:37:00;0.85;;;0.57;;
17790;SDS011;9019;48.132;-1.210;2022-08-06T14:39:28;1.75;;;0.60;;
17790;SDS011;9019;48.132;-1.210;2022-08-06T14:41:56;3.42;;;0.70;;
17790;SDS011;9019;48.132;-1.210;2022-08-06T14:44:41;2.83;;;0.70;;
17790;SDS011;9019;48.132;-1.210;2022-08-06T14:47:20;1.25;;;0.70;;
17790;SDS011;9019;48.132;-1.210;2022-08-06T14:49:47;2.60;;;0.60;;
17790;SDS011;9019;48.132;-1.210;2022-08-06T14:52:15;1.02;;;0.60;;
17790;SDS011;9019;48.132;-1.210;2022-08-06T14:54:42;1.15;;;0.60;;
17790;SDS011;9019;48.132;-1.210;2022-08-06T14:57:10;1.65;;;0.70;;
17790;SDS011;9019;48.132;-1.210;2022-08-06T14:59:38;2.17;;;0.85;;
17790;SDS011;9019;48.132;-1.210;2022-08-06T15:02:05;2.28;;;0.55;;
17790;SDS011;9019;48.132;-1.210;2022-08-06T15:04:32;1.63;;;0.60;;
17790;SDS011;9019;48.132;-1.210;2022-08-06T15:06:59;2.35;;;0.80;;